Terminal Aerodrome Forecast
Issued by NWS

Home | Current Version | Previous Version | Text Only | Print | Product List | Glossary On
Versions: 1 2 3 4 5 6 7 8 9 10 11 12 13 14
834
FTUS41 KPHI 061143
TAFPNE
TAF
KPNE 061143Z 0612/0712 04006KT P6SM OVC200
     FM061600 08009KT P6SM OVC120
     FM062000 10012KT 6SM -RA BKN030 OVC060
     FM062200 08010KT 5SM -RA BR OVC015
     FM070000 05008KT 3SM RA BR OVC007
     FM070400 04007KT 2SM -RADZ BR OVC004=

USA.gov is the U.S. government's official web portal to all federal, state and local government web resources and services.